createdAt,value
2019-04-28T00:00:57.304Z,17.33
2019-04-28T00:03:26.300Z,16.63
2019-04-28T00:05:55.127Z,15.07
2019-04-28T00:08:24.305Z,20.87
2019-04-28T00:10:53.426Z,15.63
2019-04-28T00:13:22.324Z,16.10
2019-04-28T00:15:51.587Z,20.67
2019-04-28T00:18:21.955Z,18.20
2019-04-28T00:21:20.792Z,16.17
2019-04-28T00:24:05.416Z,16.03
2019-04-28T00:26:48.370Z,21.17
2019-04-28T00:29:17.167Z,20.67
2019-04-28T00:31:46.249Z,16.77
2019-04-28T00:34:15.297Z,20.43
2019-04-28T00:36:45.875Z,17.77
2019-04-28T00:39:14.705Z,21.77
2019-04-28T00:41:43.607Z,20.77
2019-04-28T00:44:12.470Z,21.47
2019-04-28T00:46:42.131Z,18.73
2019-04-28T00:49:11.816Z,21.40
2019-04-28T00:51:43.206Z,20.30
2019-04-28T00:54:12.297Z,18.60
2019-04-28T00:56:42.110Z,18.77
2019-04-28T00:59:11.924Z,23.47
2019-04-28T01:01:46.735Z,20.97
2019-04-28T01:04:15.547Z,19.20
2019-04-28T01:06:44.692Z,22.80
2019-04-28T01:09:13.587Z,21.80
2019-04-28T01:11:42.716Z,16.77
2019-04-28T01:14:11.651Z,19.20
2019-04-28T01:16:46.629Z,19.03
2019-04-28T01:19:22.285Z,23.43
2019-04-28T01:22:15.434Z,15.85
2019-04-28T01:24:44.241Z,16.73
2019-04-28T01:27:50.658Z,24.40
2019-04-28T01:30:50.046Z,17.10
2019-04-28T01:33:34.330Z,18.67
2019-04-28T01:36:03.109Z,22.10
2019-04-28T01:38:31.960Z,18.13
2019-04-28T01:41:01.588Z,18.93
2019-04-28T01:43:31.237Z,23.50
2019-04-28T01:46:00.376Z,17.07
2019-04-28T01:48:29.650Z,17.37
2019-04-28T01:51:00.558Z,20.67
2019-04-28T01:53:30.816Z,19.70
2019-04-28T01:55:59.979Z,18.23
2019-04-28T01:58:29.684Z,14.10
2019-04-28T02:00:59.551Z,19.77
2019-04-28T02:03:30.592Z,24.27
2019-04-28T02:06:00.164Z,20.87
2019-04-28T02:08:30.344Z,16.30
2019-04-28T02:11:00.165Z,15.23
2019-04-28T02:13:29.861Z,18.50
2019-04-28T02:16:00.097Z,14.67
2019-04-28T02:18:31.906Z,20.50
2019-04-28T02:21:09.676Z,15.73
2019-04-28T02:23:39.707Z,17.17
2019-04-28T02:26:09.713Z,21.90
2019-04-28T02:28:40.631Z,22.53
2019-04-28T02:31:11.519Z,24.07
2019-04-28T02:33:40.768Z,16.43
2019-04-28T02:36:12.368Z,14.57
2019-04-28T02:38:41.470Z,12.27
2019-04-28T02:41:11.172Z,12.97
2019-04-28T02:43:41.032Z,19.13
2019-04-28T02:46:10.609Z,14.93
2019-04-28T02:48:40.468Z,17.23
2019-04-28T02:51:24.427Z,20.40
2019-04-28T02:53:53.378Z,14.33
2019-04-28T02:56:22.178Z,18.57
2019-04-28T02:58:51.288Z,11.30
2019-04-28T03:01:26.231Z,15.00
2019-04-28T03:03:52.201Z,21.37
2019-04-28T03:06:21.045Z,12.80
2019-04-28T03:08:50.559Z,18.93
2019-04-28T03:11:20.362Z,16.70
2019-04-28T03:13:51.179Z,18.53
2019-04-28T03:16:20.878Z,18.93
2019-04-28T03:18:51.424Z,20.37
2019-04-28T03:21:21.356Z,18.17
2019-04-28T03:23:51.963Z,12.30
2019-04-28T03:26:42.376Z,18.17
2019-04-28T03:29:24.655Z,15.13
2019-04-28T03:32:18.206Z,18.53
2019-04-28T03:34:44.080Z,14.27
2019-04-28T03:37:13.496Z,14.17
2019-04-28T03:39:42.346Z,15.47
2019-04-28T03:42:11.776Z,17.00
2019-04-28T03:44:41.493Z,14.47
2019-04-28T03:47:10.880Z,19.23
2019-04-28T03:49:42.810Z,17.10
2019-04-28T03:52:11.142Z,17.07
2019-04-28T03:54:41.010Z,18.97
2019-04-28T03:57:12.622Z,17.80
2019-04-28T03:59:43.855Z,19.20
2019-04-28T04:02:11.972Z,15.83
2019-04-28T04:04:41.626Z,13.47
2019-04-28T04:07:11.252Z,20.67
2019-04-28T04:10:00.924Z,13.17
2019-04-28T04:12:41.007Z,23.77
2019-04-28T04:15:26.170Z,18.13
2019-04-28T04:18:03.726Z,16.37
2019-04-28T04:20:33.347Z,22.17
2019-04-28T04:23:02.474Z,19.70
2019-04-28T04:25:31.569Z,17.90
2019-04-28T04:28:03.727Z,16.33
2019-04-28T04:30:31.345Z,16.80
2019-04-28T04:33:01.463Z,18.90
2019-04-28T04:35:31.473Z,18.63
2019-04-28T04:38:00.883Z,21.17
2019-04-28T04:40:31.752Z,16.40
2019-04-28T04:43:01.536Z,13.33
2019-04-28T04:45:30.824Z,20.40
2019-04-28T04:48:00.702Z,20.00
2019-04-28T04:50:31.382Z,21.73
2019-04-28T04:53:02.686Z,18.20
2019-04-28T04:55:31.320Z,18.53
2019-04-28T04:58:00.747Z,18.23
2019-04-28T05:00:37.834Z,18.63
2019-04-28T05:03:13.710Z,18.73
2019-04-28T05:05:43.008Z,16.77
2019-04-28T05:08:15.479Z,18.73
2019-04-28T05:10:43.832Z,17.80
2019-04-28T05:13:12.784Z,15.40
2019-04-28T05:15:41.843Z,12.83
2019-04-28T05:18:11.207Z,19.25
2019-04-28T05:20:40.471Z,14.47
2019-04-28T05:23:30.185Z,22.27
2019-04-28T05:26:01.581Z,17.07
2019-04-28T05:28:32.027Z,17.13
2019-04-28T05:31:00.136Z,19.17
2019-04-28T05:33:33.751Z,13.67
2019-04-28T05:36:02.907Z,20.27
2019-04-28T05:38:30.433Z,16.53
2019-04-28T05:41:02.329Z,15.80
2019-04-28T05:43:30.045Z,15.37
2019-04-28T05:46:00.306Z,16.27
2019-04-28T05:48:59.667Z,14.97
2019-04-28T05:51:30.194Z,17.93
2019-04-28T05:54:07.649Z,18.33
2019-04-28T05:57:02.208Z,17.17
2019-04-28T05:59:50.010Z,16.23
2019-04-28T06:02:22.790Z,16.50
2019-04-28T06:04:51.547Z,17.50
2019-04-28T06:07:33.086Z,20.83
2019-04-28T06:10:01.950Z,16.43
2019-04-28T06:12:31.953Z,17.97
2019-04-28T06:15:00.970Z,19.83
2019-04-28T06:17:30.110Z,18.97
2019-04-28T06:20:00.190Z,17.20
2019-04-28T06:22:29.402Z,17.67
2019-04-28T06:24:58.220Z,17.20
2019-04-28T06:27:27.005Z,20.87
2019-04-28T06:29:55.790Z,19.13
2019-04-28T06:32:24.742Z,15.53
2019-04-28T06:34:53.543Z,21.97
2019-04-28T06:37:22.343Z,19.17
2019-04-28T06:39:51.127Z,19.33
2019-04-28T06:42:20.151Z,23.60
2019-04-28T06:44:48.919Z,18.33
2019-04-28T06:47:17.718Z,16.73
2019-04-28T06:49:46.598Z,21.17
2019-04-28T06:52:16.227Z,17.53
2019-04-28T06:54:45.037Z,18.40
2019-04-28T06:57:13.915Z,17.13
2019-04-28T06:59:43.094Z,16.60
2019-04-28T07:02:11.936Z,21.93
2019-04-28T07:04:41.054Z,18.30
2019-04-28T07:07:09.978Z,14.03
2019-04-28T07:09:38.808Z,16.90
2019-04-28T07:12:07.969Z,22.60
2019-04-28T07:14:36.735Z,15.17
2019-04-28T07:17:05.647Z,20.33
2019-04-28T07:19:34.454Z,19.17
2019-04-28T07:22:22.263Z,16.43
2019-04-28T07:24:51.331Z,17.27
2019-04-28T07:27:20.131Z,20.27
2019-04-28T07:29:48.914Z,21.53
2019-04-28T07:32:17.776Z,16.13
2019-04-28T07:34:46.657Z,17.53
2019-04-28T07:37:15.522Z,22.57
2019-04-28T07:39:45.185Z,19.40
2019-04-28T07:42:14.132Z,19.17
2019-04-28T07:44:43.739Z,18.87
2019-04-28T07:47:12.571Z,20.80
2019-04-28T07:49:41.410Z,16.77
2019-04-28T07:52:41.562Z,15.87
2019-04-28T07:55:10.946Z,23.10
2019-04-28T07:57:39.869Z,18.33
2019-04-28T08:00:10.231Z,18.00
2019-04-28T08:02:39.005Z,15.67
2019-04-28T08:05:07.848Z,14.17
2019-04-28T08:07:36.611Z,15.47
2019-04-28T08:10:06.143Z,19.10
2019-04-28T08:12:34.955Z,14.33
2019-04-28T08:15:03.805Z,14.97
2019-04-28T08:17:32.592Z,15.77
2019-04-28T08:20:01.434Z,15.53
2019-04-28T08:22:31.145Z,12.00
2019-04-28T08:25:00.109Z,16.63
2019-04-28T08:27:28.895Z,14.67
2019-04-28T08:29:59.003Z,10.00
2019-04-28T08:32:37.130Z,10.33
2019-04-28T08:35:05.947Z,9.50
2019-04-28T08:37:34.849Z,13.33
2019-04-28T08:40:04.031Z,10.10
2019-04-28T08:42:32.814Z,6.40
2019-04-28T08:45:01.957Z,7.83
2019-04-28T08:47:31.048Z,6.60
2019-04-28T08:50:00.026Z,5.47
2019-04-28T08:52:29.326Z,6.07
2019-04-28T08:54:58.168Z,7.33
2019-04-28T08:57:27.447Z,8.57
2019-04-28T08:59:56.349Z,8.13
2019-04-28T09:02:25.411Z,7.00
2019-04-28T09:04:54.444Z,5.53
2019-04-28T09:07:23.487Z,8.93
2019-04-28T09:09:53.248Z,7.90
2019-04-28T09:12:22.574Z,7.37
2019-04-28T09:14:52.853Z,5.97
2019-04-28T09:17:22.262Z,5.03
2019-04-28T09:19:51.817Z,7.33
2019-04-28T09:22:20.795Z,8.43
2019-04-28T09:24:49.613Z,7.97
2019-04-28T09:27:18.517Z,7.10
2019-04-28T09:29:47.861Z,6.57
2019-04-28T09:32:17.304Z,7.23
2019-04-28T09:34:46.188Z,9.70
2019-04-28T09:37:15.093Z,9.03
2019-04-28T09:40:03.104Z,7.73
2019-04-28T09:42:56.855Z,6.97
2019-04-28T09:45:31.472Z,6.67
2019-04-28T09:48:00.413Z,8.73
2019-04-28T09:50:29.500Z,5.30
2019-04-28T09:52:58.307Z,10.97
2019-04-28T09:55:27.115Z,9.57
2019-04-28T09:57:55.957Z,9.03
2019-04-28T10:00:25.178Z,8.50
2019-04-28T10:02:55.930Z,11.70
2019-04-28T10:05:25.039Z,9.93
2019-04-28T10:07:54.047Z,9.07
2019-04-28T10:10:23.648Z,10.13
2019-04-28T10:12:52.821Z,10.70
2019-04-28T10:15:21.787Z,10.77
2019-04-28T10:17:50.823Z,11.33
2019-04-28T10:20:19.795Z,16.33
2019-04-28T10:22:49.097Z,14.63
2019-04-28T10:25:20.995Z,14.47
2019-04-28T10:27:49.547Z,15.00
2019-04-28T10:30:19.325Z,15.77
2019-04-28T10:32:48.541Z,14.90
2019-04-28T10:35:17.714Z,18.10
2019-04-28T10:37:48.908Z,14.80
2019-04-28T10:40:29.344Z,12.40
2019-04-28T10:42:58.551Z,15.93
2019-04-28T10:45:29.134Z,12.90
2019-04-28T10:47:58.213Z,15.20
2019-04-28T10:50:27.715Z,15.43
2019-04-28T10:52:57.982Z,14.23
2019-04-28T10:55:27.559Z,13.27
2019-04-28T10:57:56.597Z,13.23
2019-04-28T11:00:28.292Z,9.20
2019-04-28T11:02:57.554Z,15.83
2019-04-28T11:05:32.183Z,12.83
2019-04-28T11:08:02.968Z,10.47
2019-04-28T11:10:31.992Z,8.07
2019-04-28T11:13:00.847Z,8.80
2019-04-28T11:15:34.232Z,9.60
2019-04-28T11:18:04.316Z,9.47
2019-04-28T11:20:33.192Z,9.50
2019-04-28T11:23:02.673Z,11.87
2019-04-28T11:25:31.808Z,12.00
2019-04-28T11:28:01.444Z,8.83
2019-04-28T11:30:30.929Z,7.13
2019-04-28T11:33:11.334Z,8.90
2019-04-28T11:35:40.654Z,7.03
2019-04-28T11:38:09.834Z,7.00
2019-04-28T11:40:39.108Z,5.90
2019-04-28T11:43:08.175Z,10.50
2019-04-28T11:45:38.212Z,7.20
2019-04-28T11:48:07.096Z,6.77
2019-04-28T11:50:36.211Z,7.60
2019-04-28T11:53:05.180Z,7.40
2019-04-28T11:55:34.419Z,8.50
2019-04-28T11:58:03.282Z,8.97
2019-04-28T12:00:34.354Z,7.30
2019-04-28T12:03:03.457Z,8.43
2019-04-28T12:05:44.391Z,11.37
2019-04-28T12:08:13.773Z,7.50
2019-04-28T12:11:00.691Z,10.40
2019-04-28T12:13:41.806Z,10.83
2019-04-28T12:16:28.915Z,12.17
2019-04-28T12:19:11.366Z,12.67
2019-04-28T12:21:40.592Z,11.03
2019-04-28T12:24:09.494Z,11.33
2019-04-28T12:26:38.423Z,11.47
2019-04-28T12:29:07.674Z,11.33
2019-04-28T12:31:36.595Z,13.57
2019-04-28T12:34:05.581Z,12.37
2019-04-28T12:36:35.149Z,12.53
2019-04-28T12:39:05.708Z,8.93
2019-04-28T12:41:34.752Z,10.27
2019-04-28T12:44:03.720Z,8.03
2019-04-28T12:46:32.788Z,10.73
2019-04-28T12:49:06.737Z,10.20
2019-04-28T12:51:35.628Z,11.13
2019-04-28T12:54:06.932Z,9.90
2019-04-28T12:56:35.837Z,11.23
2019-04-28T12:59:12.159Z,11.13
2019-04-28T13:01:57.423Z,7.83
2019-04-28T13:04:34.654Z,7.70
2019-04-28T13:07:12.943Z,11.97
2019-04-28T13:09:41.802Z,8.90
2019-04-28T13:12:10.932Z,9.40
2019-04-28T13:14:39.750Z,8.30
2019-04-28T13:17:08.586Z,11.73
2019-04-28T13:19:37.651Z,12.50
2019-04-28T13:22:06.465Z,11.13
2019-04-28T13:24:35.279Z,9.40
2019-04-28T13:27:04.536Z,9.07
2019-04-28T13:29:33.405Z,10.87
2019-04-28T13:32:02.645Z,11.40
2019-04-28T13:34:33.311Z,9.00
2019-04-28T13:37:02.664Z,7.10
2019-04-28T13:39:39.745Z,9.67
2019-04-28T13:42:08.590Z,6.00
2019-04-28T13:45:00.387Z,7.33
2019-04-28T13:47:29.234Z,5.90
2019-04-28T13:50:17.419Z,8.23
2019-04-28T13:52:46.686Z,7.47
2019-04-28T13:55:40.606Z,6.07
2019-04-28T13:58:10.222Z,6.97
2019-04-28T14:01:04.015Z,9.77
2019-04-28T14:03:55.054Z,6.63
2019-04-28T14:06:28.468Z,7.53
2019-04-28T14:08:55.306Z,7.10
2019-04-28T14:11:24.146Z,9.53
2019-04-28T14:13:53.172Z,10.77
2019-04-28T14:16:22.211Z,9.00
2019-04-28T14:18:51.027Z,10.40
2019-04-28T14:21:20.187Z,5.33
2019-04-28T14:23:49.062Z,5.50
2019-04-28T14:26:18.126Z,6.77
2019-04-28T14:28:47.058Z,10.87
2019-04-28T14:31:16.082Z,9.60
2019-04-28T14:33:44.932Z,8.13
2019-04-28T14:36:14.071Z,8.00
2019-04-28T14:38:43.251Z,8.93
2019-04-28T14:41:12.569Z,11.67
2019-04-28T14:43:41.526Z,8.27
2019-04-28T14:46:10.537Z,10.27
2019-04-28T14:48:39.405Z,10.97
2019-04-28T14:51:08.488Z,9.70
2019-04-28T14:53:37.540Z,15.50
2019-04-28T14:56:07.619Z,12.50
2019-04-28T14:58:36.711Z,9.60
2019-04-28T15:01:13.176Z,11.60
2019-04-28T15:03:44.373Z,8.93
2019-04-28T15:06:36.450Z,8.57
2019-04-28T15:09:25.477Z,8.73
2019-04-28T15:11:58.793Z,7.80
2019-04-28T15:14:28.771Z,9.00
2019-04-28T15:16:57.941Z,9.47
2019-04-28T15:19:26.793Z,9.23
2019-04-28T15:21:55.961Z,7.60
2019-04-28T15:24:24.840Z,8.70
2019-04-28T15:26:54.130Z,8.17
2019-04-28T15:29:22.948Z,7.90
2019-04-28T15:31:51.838Z,10.77
2019-04-28T15:34:20.998Z,11.33
2019-04-28T15:36:50.001Z,9.17
2019-04-28T15:39:19.079Z,11.53
2019-04-28T15:41:48.319Z,12.57
2019-04-28T15:44:17.221Z,10.50
2019-04-28T15:46:46.178Z,14.17
2019-04-28T15:49:15.106Z,9.37
2019-04-28T15:51:44.080Z,11.23
2019-04-28T15:54:13.179Z,10.40
2019-04-28T15:56:45.003Z,9.37
2019-04-28T15:59:14.251Z,13.37
2019-04-28T16:01:43.023Z,11.97
2019-04-28T16:04:11.881Z,11.70
2019-04-28T16:06:41.366Z,9.37
2019-04-28T16:09:14.435Z,19.80
2019-04-28T16:11:43.409Z,12.27
2019-04-28T16:14:14.595Z,14.83
2019-04-28T16:16:43.850Z,13.13
2019-04-28T16:19:12.703Z,12.97
2019-04-28T16:21:41.652Z,10.50
2019-04-28T16:24:10.585Z,10.37
2019-04-28T16:26:39.510Z,11.33
2019-04-28T16:29:08.640Z,11.37
2019-04-28T16:31:37.651Z,12.33
2019-04-28T16:34:07.258Z,11.97
2019-04-28T16:36:36.198Z,8.50
2019-04-28T16:39:06.353Z,11.50
2019-04-28T16:41:36.476Z,10.33
2019-04-28T16:44:06.529Z,8.57
2019-04-28T16:46:35.499Z,8.50
2019-04-28T16:49:04.567Z,8.47
2019-04-28T16:51:33.505Z,8.23
2019-04-28T16:54:02.567Z,8.80
2019-04-28T16:56:50.656Z,8.33
2019-04-28T16:59:37.485Z,9.87
2019-04-28T17:02:27.675Z,10.73
2019-04-28T17:04:56.617Z,10.93
2019-04-28T17:07:25.493Z,8.17
2019-04-28T17:09:54.570Z,8.00
2019-04-28T17:12:23.638Z,7.50
2019-04-28T17:14:52.694Z,7.80
2019-04-28T17:17:21.576Z,8.60
2019-04-28T17:19:50.785Z,6.97
2019-04-28T17:22:19.583Z,7.83
2019-04-28T17:24:50.750Z,8.13
2019-04-28T17:27:19.630Z,10.27
2019-04-28T17:29:51.141Z,7.20
2019-04-28T17:32:20.121Z,7.53
2019-04-28T17:34:49.386Z,8.47
2019-04-28T17:37:18.491Z,8.90
2019-04-28T17:39:47.384Z,10.77
2019-04-28T17:42:23.078Z,8.40
2019-04-28T17:44:52.303Z,6.53
2019-04-28T17:47:21.423Z,9.47
2019-04-28T17:49:50.859Z,8.70
2019-04-28T17:52:20.156Z,8.53
2019-04-28T17:54:52.391Z,7.47
2019-04-28T17:57:21.381Z,7.63
2019-04-28T17:59:52.045Z,8.00
2019-04-28T18:02:49.553Z,6.77
2019-04-28T18:05:39.036Z,8.83
2019-04-28T18:08:20.371Z,7.67
2019-04-28T18:10:39.129Z,7.87
2019-04-28T18:13:08.077Z,8.37
2019-04-28T18:15:55.139Z,9.87
2019-04-28T18:18:31.940Z,9.13
2019-04-28T18:21:02.101Z,8.63
2019-04-28T18:23:31.150Z,10.53
2019-04-28T18:26:00.889Z,8.97
2019-04-28T18:28:29.743Z,9.33
2019-04-28T18:31:15.277Z,9.47
2019-04-28T18:34:03.359Z,8.93
2019-04-28T18:36:40.041Z,10.10
2019-04-28T18:39:43.305Z,11.87
2019-04-28T18:42:37.373Z,9.33
2019-04-28T18:45:07.404Z,12.40
2019-04-28T18:47:36.504Z,10.33
2019-04-28T18:50:05.792Z,12.07
2019-04-28T18:52:35.143Z,8.43
2019-04-28T18:55:04.732Z,8.30
2019-04-28T18:57:33.983Z,10.23
2019-04-28T19:00:03.728Z,11.57
2019-04-28T19:02:43.224Z,11.70
2019-04-28T19:05:12.445Z,11.40
2019-04-28T19:08:09.536Z,8.90
2019-04-28T19:10:52.007Z,8.77
2019-04-28T19:13:26.825Z,12.73
2019-04-28T19:16:17.422Z,9.53
2019-04-28T19:18:46.910Z,8.30
2019-04-28T19:21:16.245Z,8.90
2019-04-28T19:23:46.409Z,12.43
2019-04-28T19:26:15.506Z,10.53
2019-04-28T19:28:44.550Z,10.27
2019-04-28T19:31:13.474Z,11.97
2019-04-28T19:33:42.417Z,9.87
2019-04-28T19:36:12.040Z,9.07
2019-04-28T19:38:41.273Z,10.90
2019-04-28T19:41:10.856Z,11.23
2019-04-28T19:43:40.014Z,10.07
2019-04-28T19:46:11.926Z,12.43
2019-04-28T19:48:40.901Z,10.47
2019-04-28T19:51:09.753Z,11.70
2019-04-28T19:53:38.736Z,10.23
2019-04-28T19:56:16.506Z,10.97
2019-04-28T19:58:56.001Z,12.90
2019-04-28T20:01:27.157Z,11.37
2019-04-28T20:03:57.003Z,13.00
2019-04-28T20:06:25.887Z,11.97
2019-04-28T20:08:54.977Z,10.80
2019-04-28T20:11:24.184Z,11.37
2019-04-28T20:13:53.344Z,9.73
2019-04-28T20:16:23.702Z,10.77
2019-04-28T20:18:52.640Z,10.10
2019-04-28T20:26:43.774Z,10.37
2019-04-28T20:29:12.870Z,12.70
2019-04-28T20:31:41.739Z,8.47
2019-04-28T20:34:11.010Z,11.17
2019-04-28T20:36:58.272Z,12.90
2019-04-28T20:39:29.761Z,11.20
2019-04-28T20:42:18.062Z,12.40
2019-04-28T20:44:47.675Z,12.63
2019-04-28T20:47:16.795Z,10.50
2019-04-28T20:49:45.675Z,10.50
2019-04-28T20:52:14.903Z,12.33
2019-04-28T20:54:43.939Z,10.50
2019-04-28T20:57:12.842Z,11.50
2019-04-28T20:59:41.770Z,9.97
2019-04-28T21:02:10.742Z,10.73
2019-04-28T21:04:39.834Z,12.40
2019-04-28T21:07:08.682Z,10.10
2019-04-28T21:09:37.743Z,11.17
2019-04-28T21:12:06.616Z,11.03
2019-04-28T21:14:36.980Z,9.60
2019-04-28T21:17:06.056Z,11.87
2019-04-28T21:19:35.179Z,12.10
2019-04-28T21:22:04.246Z,11.87
2019-04-28T21:24:33.209Z,9.93
2019-04-28T21:27:02.291Z,10.77
2019-04-28T21:29:31.335Z,12.43
2019-04-28T21:32:00.248Z,10.73
2019-04-28T21:34:29.458Z,9.93
2019-04-28T21:36:58.575Z,11.67
2019-04-28T21:39:27.609Z,10.23
2019-04-28T21:41:58.307Z,13.60
2019-04-28T21:44:49.069Z,12.77
2019-04-28T21:47:27.615Z,13.00
2019-04-28T21:49:57.523Z,10.53
2019-04-28T21:52:26.719Z,11.30
2019-04-28T21:54:55.739Z,10.60
2019-04-28T21:57:24.873Z,10.30
2019-04-28T21:59:55.025Z,13.37
2019-04-28T22:02:23.917Z,10.03
2019-04-28T22:04:52.773Z,11.70
2019-04-28T22:07:21.915Z,12.73
2019-04-28T22:09:50.825Z,11.97
2019-04-28T22:12:20.466Z,13.50
2019-04-28T22:14:49.430Z,11.40
2019-04-28T22:17:18.229Z,11.83
2019-04-28T22:19:47.589Z,11.43
2019-04-28T22:22:16.554Z,12.27
2019-04-28T22:24:55.077Z,14.43
2019-04-28T22:27:43.104Z,11.10
2019-04-28T22:30:12.399Z,13.10
2019-04-28T22:32:41.349Z,12.90
2019-04-28T22:35:10.402Z,11.73
2019-04-28T22:37:39.347Z,11.70
2019-04-28T22:40:11.664Z,12.93
2019-04-28T22:42:41.305Z,12.33
2019-04-28T22:45:10.351Z,14.40
2019-04-28T22:47:43.110Z,19.63
2019-04-28T22:50:33.004Z,14.27
2019-04-28T22:53:06.219Z,13.40
2019-04-28T22:55:48.181Z,12.13
2019-04-28T22:58:24.179Z,12.53
2019-04-28T23:01:10.021Z,13.93
2019-04-28T23:03:43.682Z,15.03
2019-04-28T23:06:12.634Z,16.47
2019-04-28T23:08:41.570Z,13.17
2019-04-28T23:11:10.624Z,13.67
2019-04-28T23:13:39.455Z,14.07
2019-04-28T23:16:08.706Z,15.00
2019-04-28T23:18:37.720Z,14.27
2019-04-28T23:21:14.212Z,15.63
2019-04-28T23:23:42.998Z,17.30
2019-04-28T23:26:11.833Z,14.57
2019-04-28T23:28:40.844Z,14.07
2019-04-28T23:31:09.744Z,13.50
2019-04-28T23:33:39.022Z,15.30
2019-04-28T23:36:07.970Z,15.08
2019-04-28T23:38:36.985Z,14.93
2019-04-28T23:41:16.273Z,16.03
2019-04-28T23:43:47.150Z,15.00
2019-04-28T23:46:16.413Z,14.73
2019-04-28T23:48:45.433Z,14.83
2019-04-28T23:51:33.423Z,16.33
2019-04-28T23:54:05.104Z,13.80
2019-04-28T23:56:33.962Z,12.90
2019-04-28T23:59:03.019Z,16.73
